sensor_id;sensor_type;location;lat;lon;timestamp;pressure;altitude;pressure_sealevel;temperature;humidity
2549;BME280;1284;53.520;10.248;2023-03-01T00:01:29;102433.28;;;2.39;77.97
2549;BME280;1284;53.520;10.248;2023-03-01T00:03:55;102424.72;;;2.32;77.59
2549;BME280;1284;53.520;10.248;2023-03-01T00:06:21;102421.28;;;2.32;77.33
2549;BME280;1284;53.520;10.248;2023-03-01T00:08:47;102414.88;;;2.28;77.73
2549;BME280;1284;53.520;10.248;2023-03-01T00:11:32;102413.75;;;2.19;77.71
2549;BME280;1284;53.520;10.248;2023-03-01T00:14:00;102403.97;;;2.24;77.64
2549;BME280;1284;53.520;10.248;2023-03-01T00:16:33;102408.66;;;2.12;78.28
2549;BME280;1284;53.520;10.248;2023-03-01T00:18:59;102410.41;;;2.02;78.63
2549;BME280;1284;53.520;10.248;2023-03-01T00:21:25;102407.81;;;2.07;78.97
2549;BME280;1284;53.520;10.248;2023-03-01T00:23:52;102415.28;;;2.10;78.89
2549;BME280;1284;53.520;10.248;2023-03-01T00:26:19;102414.06;;;2.22;78.26
2549;BME280;1284;53.520;10.248;2023-03-01T00:28:45;102413.34;;;2.00;78.67
2549;BME280;1284;53.520;10.248;2023-03-01T00:31:19;102424.13;;;1.89;79.17
2549;BME280;1284;53.520;10.248;2023-03-01T00:33:45;102417.44;;;2.13;79.06
2549;BME280;1284;53.520;10.248;2023-03-01T00:36:13;102418.56;;;2.22;78.52
2549;BME280;1284;53.520;10.248;2023-03-01T00:38:43;102410.31;;;2.23;78.73
2549;BME280;1284;53.520;10.248;2023-03-01T00:41:14;102416.34;;;2.09;78.44
2549;BME280;1284;53.520;10.248;2023-03-01T00:43:40;102421.09;;;2.07;78.82
2549;BME280;1284;53.520;10.248;2023-03-01T00:48:34;102414.44;;;2.04;78.85
2549;BME280;1284;53.520;10.248;2023-03-01T00:53:33;102410.09;;;1.93;79.51
2549;BME280;1284;53.520;10.248;2023-03-01T00:55:58;102406.53;;;1.77;79.43
2549;BME280;1284;53.520;10.248;2023-03-01T00:58:24;102417.97;;;1.83;79.57
2549;BME280;1284;53.520;10.248;2023-03-01T01:00:50;102408.78;;;1.96;79.09
2549;BME280;1284;53.520;10.248;2023-03-01T01:03:17;102405.28;;;1.90;78.71
2549;BME280;1284;53.520;10.248;2023-03-01T01:05:43;102401.78;;;1.84;79.54
2549;BME280;1284;53.520;10.248;2023-03-01T01:08:08;102395.66;;;1.84;79.38
2549;BME280;1284;53.520;10.248;2023-03-01T01:10:34;102393.50;;;1.76;79.58
2549;BME280;1284;53.520;10.248;2023-03-01T01:13:00;102390.63;;;1.82;79.69
2549;BME280;1284;53.520;10.248;2023-03-01T01:15:25;102393.28;;;1.82;80.17
2549;BME280;1284;53.520;10.248;2023-03-01T01:17:51;102388.91;;;1.66;80.09
2549;BME280;1284;53.520;10.248;2023-03-01T01:20:17;102388.38;;;1.69;80.47
2549;BME280;1284;53.520;10.248;2023-03-01T01:22:42;102393.66;;;1.64;80.78
2549;BME280;1284;53.520;10.248;2023-03-01T01:25:09;102388.38;;;1.69;80.87
2549;BME280;1284;53.520;10.248;2023-03-01T01:27:39;102386.84;;;1.73;80.47
2549;BME280;1284;53.520;10.248;2023-03-01T01:30:05;102385.44;;;1.66;80.89
2549;BME280;1284;53.520;10.248;2023-03-01T01:32:30;102381.00;;;1.76;80.43
2549;BME280;1284;53.520;10.248;2023-03-01T01:34:56;102387.56;;;1.69;80.11
2549;BME280;1284;53.520;10.248;2023-03-01T01:37:21;102384.09;;;1.63;80.46
2549;BME280;1284;53.520;10.248;2023-03-01T01:39:47;102380.38;;;1.64;80.64
2549;BME280;1284;53.520;10.248;2023-03-01T01:42:17;102377.28;;;1.46;81.18
2549;BME280;1284;53.520;10.248;2023-03-01T01:44:47;102365.50;;;1.63;81.02
2549;BME280;1284;53.520;10.248;2023-03-01T01:47:20;102367.31;;;1.58;80.99
2549;BME280;1284;53.520;10.248;2023-03-01T01:49:49;102370.06;;;1.68;80.94
2549;BME280;1284;53.520;10.248;2023-03-01T01:52:25;102361.81;;;1.64;81.01
2549;BME280;1284;53.520;10.248;2023-03-01T01:55:06;102357.53;;;1.63;81.26
2549;BME280;1284;53.520;10.248;2023-03-01T01:57:36;102362.19;;;1.78;80.58
2549;BME280;1284;53.520;10.248;2023-03-01T02:00:16;102355.88;;;1.57;80.69
2549;BME280;1284;53.520;10.248;2023-03-01T02:02:44;102357.88;;;1.72;81.11
2549;BME280;1284;53.520;10.248;2023-03-01T02:05:42;102353.78;;;1.59;80.93
2549;BME280;1284;53.520;10.248;2023-03-01T02:08:04;102352.94;;;1.54;81.43
2549;BME280;1284;53.520;10.248;2023-03-01T02:10:32;102356.56;;;1.43;81.77
2549;BME280;1284;53.520;10.248;2023-03-01T02:13:01;102359.47;;;1.41;81.59
2549;BME280;1284;53.520;10.248;2023-03-01T02:15:31;102347.84;;;1.47;81.06
2549;BME280;1284;53.520;10.248;2023-03-01T02:17:57;102342.03;;;1.50;81.78
2549;BME280;1284;53.520;10.248;2023-03-01T02:22:59;102348.19;;;1.56;81.68
2549;BME280;1284;53.520;10.248;2023-03-01T02:25:51;102341.34;;;1.65;81.52
2549;BME280;1284;53.520;10.248;2023-03-01T02:28:30;102337.44;;;1.72;81.41
2549;BME280;1284;53.520;10.248;2023-03-01T02:30:57;102328.44;;;1.73;81.27
2549;BME280;1284;53.520;10.248;2023-03-01T02:33:41;102331.81;;;1.64;81.29
2549;BME280;1284;53.520;10.248;2023-03-01T02:36:23;102334.06;;;1.50;81.58
2549;BME280;1284;53.520;10.248;2023-03-01T02:38:51;102333.84;;;1.57;82.55
2549;BME280;1284;53.520;10.248;2023-03-01T02:43:45;102327.03;;;1.66;82.53
2549;BME280;1284;53.520;10.248;2023-03-01T02:46:20;102338.75;;;1.70;82.52
2549;BME280;1284;53.520;10.248;2023-03-01T02:48:57;102339.84;;;1.74;82.42
2549;BME280;1284;53.520;10.248;2023-03-01T02:54:23;102325.63;;;1.90;82.05
2549;BME280;1284;53.520;10.248;2023-03-01T02:56:50;102332.19;;;1.77;82.34
2549;BME280;1284;53.520;10.248;2023-03-01T02:59:24;102328.97;;;1.75;82.56
2549;BME280;1284;53.520;10.248;2023-03-01T03:01:52;102329.25;;;1.79;83.57
2549;BME280;1284;53.520;10.248;2023-03-01T03:04:19;102321.91;;;1.91;83.62
2549;BME280;1284;53.520;10.248;2023-03-01T03:06:49;102328.59;;;1.99;82.84
2549;BME280;1284;53.520;10.248;2023-03-01T03:09:15;102321.25;;;2.11;83.04
2549;BME280;1284;53.520;10.248;2023-03-01T03:11:41;102322.84;;;2.12;83.00
2549;BME280;1284;53.520;10.248;2023-03-01T03:14:10;102321.75;;;2.08;82.82
2549;BME280;1284;53.520;10.248;2023-03-01T03:16:41;102318.34;;;2.12;82.10
2549;BME280;1284;53.520;10.248;2023-03-01T03:19:07;102318.91;;;2.19;82.36
2549;BME280;1284;53.520;10.248;2023-03-01T03:21:33;102317.59;;;2.22;82.39
2549;BME280;1284;53.520;10.248;2023-03-01T03:23:58;102321.09;;;2.32;81.95
2549;BME280;1284;53.520;10.248;2023-03-01T03:26:24;102326.66;;;2.31;81.83
2549;BME280;1284;53.520;10.248;2023-03-01T03:28:49;102327.13;;;2.18;81.53
2549;BME280;1284;53.520;10.248;2023-03-01T03:31:15;102316.03;;;2.26;82.15
2549;BME280;1284;53.520;10.248;2023-03-01T03:33:41;102319.56;;;2.41;81.55
2549;BME280;1284;53.520;10.248;2023-03-01T03:36:07;102318.75;;;2.46;81.71
2549;BME280;1284;53.520;10.248;2023-03-01T03:38:38;102311.38;;;2.58;81.45
2549;BME280;1284;53.520;10.248;2023-03-01T03:41:06;102307.72;;;2.69;80.79
2549;BME280;1284;53.520;10.248;2023-03-01T03:43:36;102307.47;;;2.81;80.78
2549;BME280;1284;53.520;10.248;2023-03-01T03:46:03;102305.34;;;2.78;79.95
2549;BME280;1284;53.520;10.248;2023-03-01T03:48:35;102310.38;;;2.74;80.08
2549;BME280;1284;53.520;10.248;2023-03-01T03:51:01;102302.13;;;2.70;80.22
2549;BME280;1284;53.520;10.248;2023-03-01T03:53:28;102306.69;;;2.80;80.12
2549;BME280;1284;53.520;10.248;2023-03-01T03:55:54;102300.81;;;2.78;79.95
2549;BME280;1284;53.520;10.248;2023-03-01T03:58:23;102303.25;;;2.90;79.94
2549;BME280;1284;53.520;10.248;2023-03-01T04:00:53;102300.31;;;2.86;79.75
2549;BME280;1284;53.520;10.248;2023-03-01T04:03:20;102302.09;;;2.65;80.40
2549;BME280;1284;53.520;10.248;2023-03-01T04:05:46;102307.19;;;2.72;80.28
2549;BME280;1284;53.520;10.248;2023-03-01T04:08:12;102303.22;;;2.80;79.94
2549;BME280;1284;53.520;10.248;2023-03-01T04:10:39;102303.47;;;2.78;80.13
2549;BME280;1284;53.520;10.248;2023-03-01T04:13:07;102294.44;;;2.79;80.38
2549;BME280;1284;53.520;10.248;2023-03-01T04:15:34;102288.28;;;2.73;80.47
2549;BME280;1284;53.520;10.248;2023-03-01T04:18:00;102285.97;;;2.92;80.02
2549;BME280;1284;53.520;10.248;2023-03-01T04:20:32;102289.91;;;2.80;80.05
2549;BME280;1284;53.520;10.248;2023-03-01T04:23:01;102297.09;;;2.79;80.05
2549;BME280;1284;53.520;10.248;2023-03-01T04:25:56;102293.13;;;2.82;80.48
2549;BME280;1284;53.520;10.248;2023-03-01T04:28:26;102296.31;;;2.79;80.86
2549;BME280;1284;53.520;10.248;2023-03-01T04:30:57;102292.06;;;2.93;80.80
2549;BME280;1284;53.520;10.248;2023-03-01T04:33:24;102288.63;;;2.97;80.28
2549;BME280;1284;53.520;10.248;2023-03-01T04:35:50;102296.38;;;3.09;80.21
2549;BME280;1284;53.520;10.248;2023-03-01T04:38:17;102290.78;;;3.05;80.08
2549;BME280;1284;53.520;10.248;2023-03-01T04:40:43;102293.69;;;3.14;80.09
2549;BME280;1284;53.520;10.248;2023-03-01T04:43:10;102285.47;;;3.20;79.87
2549;BME280;1284;53.520;10.248;2023-03-01T04:45:36;102285.22;;;3.27;79.43
2549;BME280;1284;53.520;10.248;2023-03-01T04:48:02;102288.69;;;3.17;79.44
2549;BME280;1284;53.520;10.248;2023-03-01T04:50:28;102279.34;;;3.15;79.81
2549;BME280;1284;53.520;10.248;2023-03-01T04:52:54;102276.13;;;3.03;80.22
2549;BME280;1284;53.520;10.248;2023-03-01T04:55:27;102284.13;;;3.03;80.74
2549;BME280;1284;53.520;10.248;2023-03-01T04:57:54;102283.59;;;3.16;80.76
2549;BME280;1284;53.520;10.248;2023-03-01T05:00:20;102279.91;;;3.27;80.17
2549;BME280;1284;53.520;10.248;2023-03-01T05:05:20;102280.16;;;3.35;79.44
2549;BME280;1284;53.520;10.248;2023-03-01T05:07:46;102278.56;;;3.44;79.50
2549;BME280;1284;53.520;10.248;2023-03-01T05:10:11;102280.69;;;3.42;78.95
2549;BME280;1284;53.520;10.248;2023-03-01T05:12:37;102283.34;;;3.37;79.63
2549;BME280;1284;53.520;10.248;2023-03-01T05:15:03;102279.63;;;3.38;79.67
2549;BME280;1284;53.520;10.248;2023-03-01T05:17:33;102280.69;;;3.42;79.74
2549;BME280;1284;53.520;10.248;2023-03-01T05:19:59;102277.78;;;3.54;79.35
2549;BME280;1284;53.520;10.248;2023-03-01T05:22:25;102273.50;;;3.63;79.02
2549;BME280;1284;53.520;10.248;2023-03-01T05:24:50;102278.84;;;3.58;79.45
2549;BME280;1284;53.520;10.248;2023-03-01T05:27:16;102275.63;;;3.56;79.63
2549;BME280;1284;53.520;10.248;2023-03-01T05:29:41;102278.28;;;3.61;79.50
2549;BME280;1284;53.520;10.248;2023-03-01T05:32:07;102281.75;;;3.66;79.43
2549;BME280;1284;53.520;10.248;2023-03-01T05:34:35;102278.81;;;3.68;79.56
2549;BME280;1284;53.520;10.248;2023-03-01T05:37:01;102274.81;;;3.71;79.92
2549;BME280;1284;53.520;10.248;2023-03-01T05:39:28;102276.69;;;3.75;79.55
2549;BME280;1284;53.520;10.248;2023-03-01T05:41:56;102275.09;;;3.79;79.58
2549;BME280;1284;53.520;10.248;2023-03-01T05:44:22;102264.69;;;3.73;79.73
2549;BME280;1284;53.520;10.248;2023-03-01T05:46:48;102266.84;;;3.55;80.45
2549;BME280;1284;53.520;10.248;2023-03-01T05:49:15;102269.50;;;3.50;80.68
2549;BME280;1284;53.520;10.248;2023-03-01T05:51:42;102258.84;;;3.60;80.63
2549;BME280;1284;53.520;10.248;2023-03-01T05:54:09;102265.25;;;3.70;80.19
2549;BME280;1284;53.520;10.248;2023-03-01T05:56:36;102255.63;;;3.79;79.78
2549;BME280;1284;53.520;10.248;2023-03-01T05:59:03;102260.69;;;3.80;79.70
2549;BME280;1284;53.520;10.248;2023-03-01T06:01:31;102262.81;;;3.88;79.48
2549;BME280;1284;53.520;10.248;2023-03-01T06:03:57;102263.31;;;3.90;79.36
2549;BME280;1284;53.520;10.248;2023-03-01T06:06:23;102260.94;;;3.89;79.48
2549;BME280;1284;53.520;10.248;2023-03-01T06:08:49;102263.31;;;3.90;79.36
2549;BME280;1284;53.520;10.248;2023-03-01T06:11:15;102266.50;;;3.87;79.05
2549;BME280;1284;53.520;10.248;2023-03-01T06:13:42;102258.53;;;3.92;79.16
2549;BME280;1284;53.520;10.248;2023-03-01T06:16:07;102257.97;;;3.95;78.88
2549;BME280;1284;53.520;10.248;2023-03-01T06:18:33;102261.72;;;3.94;79.05
2549;BME280;1284;53.520;10.248;2023-03-01T06:20:58;102265.19;;;3.90;79.19
2549;BME280;1284;53.520;10.248;2023-03-01T06:23:24;102261.47;;;3.91;79.50
2549;BME280;1284;53.520;10.248;2023-03-01T06:25:50;102255.06;;;3.97;79.06
2549;BME280;1284;53.520;10.248;2023-03-01T06:28:15;102258.75;;;4.01;79.25
2549;BME280;1284;53.520;10.248;2023-03-01T06:30:41;102258.78;;;3.96;79.73
2549;BME280;1284;53.520;10.248;2023-03-01T06:33:07;102271.56;;;3.94;79.10
2549;BME280;1284;53.520;10.248;2023-03-01T06:35:32;102263.06;;;3.97;79.28
2549;BME280;1284;53.520;10.248;2023-03-01T06:38:00;102263.59;;;3.99;79.09
2549;BME280;1284;53.520;10.248;2023-03-01T06:40:26;102264.66;;;3.93;79.15
2549;BME280;1284;53.520;10.248;2023-03-01T06:42:51;102260.91;;;3.99;79.23
2549;BME280;1284;53.520;10.248;2023-03-01T06:45:19;102264.66;;;3.93;79.25
2549;BME280;1284;53.520;10.248;2023-03-01T06:47:45;102264.13;;;3.96;79.33
2549;BME280;1284;53.520;10.248;2023-03-01T06:50:11;102264.09;;;4.06;79.35
2549;BME280;1284;53.520;10.248;2023-03-01T06:52:38;102264.09;;;4.06;78.90
2549;BME280;1284;53.520;10.248;2023-03-01T06:55:04;102261.94;;;4.08;79.26
2549;BME280;1284;53.520;10.248;2023-03-01T06:57:29;102275.28;;;4.08;79.22
2549;BME280;1284;53.520;10.248;2023-03-01T06:59:55;102281.63;;;4.17;79.22
2549;BME280;1284;53.520;10.248;2023-03-01T07:02:21;102269.94;;;4.18;78.85
2549;BME280;1284;53.520;10.248;2023-03-01T07:04:48;102266.19;;;4.14;79.46
2549;BME280;1284;53.520;10.248;2023-03-01T07:07:14;102262.69;;;4.23;78.93
2549;BME280;1284;53.520;10.248;2023-03-01T07:09:39;102261.34;;;4.31;79.10
2549;BME280;1284;53.520;10.248;2023-03-01T07:12:05;102258.44;;;4.27;78.74
2549;BME280;1284;53.520;10.248;2023-03-01T07:14:30;102263.19;;;4.30;78.87
2549;BME280;1284;53.520;10.248;2023-03-01T07:16:56;102252.78;;;4.34;78.99
2549;BME280;1284;53.520;10.248;2023-03-01T07:19:22;102259.69;;;4.40;79.21
2549;BME280;1284;53.520;10.248;2023-03-01T07:21:48;102265.28;;;4.43;79.57
2549;BME280;1284;53.520;10.248;2023-03-01T07:24:14;102247.31;;;4.59;78.93
2549;BME280;1284;53.520;10.248;2023-03-01T07:26:39;102250.00;;;4.59;78.89
2549;BME280;1284;53.520;10.248;2023-03-01T07:29:06;102243.91;;;4.53;79.50
2549;BME280;1284;53.520;10.248;2023-03-01T07:31:31;102255.41;;;4.49;80.43
2549;BME280;1284;53.520;10.248;2023-03-01T07:33:57;102247.31;;;4.59;80.13
2549;BME280;1284;53.520;10.248;2023-03-01T07:36:23;102244.91;;;4.68;80.34
2549;BME280;1284;53.520;10.248;2023-03-01T07:38:48;102246.22;;;4.70;79.57
2549;BME280;1284;53.520;10.248;2023-03-01T07:41:14;102257.66;;;4.76;79.84
2549;BME280;1284;53.520;10.248;2023-03-01T07:43:39;102250.41;;;4.81;78.93
2549;BME280;1284;53.520;10.248;2023-03-01T07:46:05;102248.81;;;4.80;79.12
2549;BME280;1284;53.520;10.248;2023-03-01T07:48:31;102259.41;;;4.90;78.45
2549;BME280;1284;53.520;10.248;2023-03-01T07:51:01;102246.88;;;4.91;78.56
2549;BME280;1284;53.520;10.248;2023-03-01T07:53:27;102252.47;;;4.94;78.56
2549;BME280;1284;53.520;10.248;2023-03-01T07:56:07;102244.97;;;5.01;77.96
2549;BME280;1284;53.520;10.248;2023-03-01T07:58:34;102253.38;;;5.13;78.05
2549;BME280;1284;53.520;10.248;2023-03-01T08:01:09;102262.66;;;5.21;77.92
2549;BME280;1284;53.520;10.248;2023-03-01T08:06:21;102253.78;;;5.30;77.54
2549;BME280;1284;53.520;10.248;2023-03-01T08:08:47;102272.69;;;5.39;76.78
2549;BME280;1284;53.520;10.248;2023-03-01T08:11:14;102276.59;;;5.52;76.77
2549;BME280;1284;53.520;10.248;2023-03-01T08:13:40;102272.53;;;5.59;75.86
2549;BME280;1284;53.520;10.248;2023-03-01T08:16:09;102265.44;;;5.73;75.14
2549;BME280;1284;53.520;10.248;2023-03-01T08:18:36;102264.59;;;5.78;74.52
2549;BME280;1284;53.520;10.248;2023-03-01T08:21:08;102280.84;;;5.81;74.50
2549;BME280;1284;53.520;10.248;2023-03-01T08:23:34;102276.28;;;5.87;74.66
2549;BME280;1284;53.520;10.248;2023-03-01T08:26:10;102269.47;;;5.99;74.18
2549;BME280;1284;53.520;10.248;2023-03-01T08:28:37;102275.63;;;6.23;74.20
2549;BME280;1284;53.520;10.248;2023-03-01T08:31:17;102281.59;;;6.39;73.51
2549;BME280;1284;53.520;10.248;2023-03-01T08:33:43;102270.63;;;6.41;71.79
2549;BME280;1284;53.520;10.248;2023-03-01T08:36:09;102268.00;;;6.35;71.68
2549;BME280;1284;53.520;10.248;2023-03-01T08:38:35;102273.00;;;6.42;72.40
2549;BME280;1284;53.520;10.248;2023-03-01T08:41:02;102264.38;;;6.45;71.66
2549;BME280;1284;53.520;10.248;2023-03-01T08:43:28;102265.94;;;6.27;71.92
2549;BME280;1284;53.520;10.248;2023-03-01T08:45:54;102263.00;;;6.29;73.18
2549;BME280;1284;53.520;10.248;2023-03-01T08:48:19;102258.94;;;6.31;72.92
2549;BME280;1284;53.520;10.248;2023-03-01T08:50:45;102271.19;;;6.37;72.21
2549;BME280;1284;53.520;10.248;2023-03-01T08:53:10;102272.94;;;6.47;71.64
2549;BME280;1284;53.520;10.248;2023-03-01T08:55:36;102277.44;;;6.52;71.25
2549;BME280;1284;53.520;10.248;2023-03-01T08:58:01;102274.88;;;6.60;70.52
2549;BME280;1284;53.520;10.248;2023-03-01T09:00:27;102270.06;;;6.62;70.54
2549;BME280;1284;53.520;10.248;2023-03-01T09:02:53;102274.63;;;6.62;71.19
2549;BME280;1284;53.520;10.248;2023-03-01T09:05:18;102267.66;;;6.61;71.55
2549;BME280;1284;53.520;10.248;2023-03-01T09:07:43;102275.34;;;6.67;72.10
2549;BME280;1284;53.520;10.248;2023-03-01T09:10:09;102272.09;;;6.70;71.74
2549;BME280;1284;53.520;10.248;2023-03-01T09:12:35;102281.72;;;6.71;71.97
2549;BME280;1284;53.520;10.248;2023-03-01T09:15:00;102274.84;;;6.84;71.91
2549;BME280;1284;53.520;10.248;2023-03-01T09:17:26;102274.88;;;7.02;70.89
2549;BME280;1284;53.520;10.248;2023-03-01T09:19:51;102278.69;;;6.96;70.92
2549;BME280;1284;53.520;10.248;2023-03-01T09:22:17;102277.25;;;7.04;72.65
2549;BME280;1284;53.520;10.248;2023-03-01T09:24:42;102273.09;;;7.11;73.24
2549;BME280;1284;53.520;10.248;2023-03-01T09:27:08;102266.66;;;7.31;72.39
2549;BME280;1284;53.520;10.248;2023-03-01T09:29:36;102265.72;;;7.54;70.71
2549;BME280;1284;53.520;10.248;2023-03-01T09:32:01;102265.25;;;7.66;70.92
2549;BME280;1284;53.520;10.248;2023-03-01T09:34:27;102272.50;;;7.79;70.99
2549;BME280;1284;53.520;10.248;2023-03-01T09:36:52;102264.00;;;8.04;70.24
2549;BME280;1284;53.520;10.248;2023-03-01T09:39:18;102261.72;;;8.25;70.45
2549;BME280;1284;53.520;10.248;2023-03-01T09:42:00;102261.22;;;8.50;69.21
2549;BME280;1284;53.520;10.248;2023-03-01T09:47:25;102264.75;;;8.86;67.32
2549;BME280;1284;53.520;10.248;2023-03-01T09:55:31;102262.69;;;9.05;66.72
2549;BME280;1284;53.520;10.248;2023-03-01T09:58:08;102259.03;;;9.23;65.96
2549;BME280;1284;53.520;10.248;2023-03-01T10:00:44;102270.22;;;9.39;65.64
2549;BME280;1284;53.520;10.248;2023-03-01T10:03:44;102273.25;;;9.46;65.91
2549;BME280;1284;53.520;10.248;2023-03-01T10:06:21;102270.91;;;9.53;65.34
2549;BME280;1284;53.520;10.248;2023-03-01T10:09:02;102270.06;;;9.44;66.67
2549;BME280;1284;53.520;10.248;2023-03-01T10:11:36;102275.25;;;9.62;66.27
2549;BME280;1284;53.520;10.248;2023-03-01T10:14:07;102264.28;;;9.81;65.86
2549;BME280;1284;53.520;10.248;2023-03-01T10:17:01;102267.16;;;9.93;65.94
2549;BME280;1284;53.520;10.248;2023-03-01T10:19:32;102270.34;;;9.95;65.38
2549;BME280;1284;53.520;10.248;2023-03-01T10:22:20;102271.66;;;10.06;65.65
2549;BME280;1284;53.520;10.248;2023-03-01T10:24:47;102263.28;;;10.08;64.72
2549;BME280;1284;53.520;10.248;2023-03-01T10:27:32;102263.88;;;10.04;66.05
2549;BME280;1284;53.520;10.248;2023-03-01T10:30:12;102268.09;;;10.19;65.78
2549;BME280;1284;53.520;10.248;2023-03-01T10:32:43;102258.00;;;10.33;65.00
2549;BME280;1284;53.520;10.248;2023-03-01T10:35:23;102255.94;;;10.30;64.70
2549;BME280;1284;53.520;10.248;2023-03-01T10:38:07;102253.50;;;10.12;65.07
2549;BME280;1284;53.520;10.248;2023-03-01T10:40:34;102252.19;;;10.09;64.91
2549;BME280;1284;53.520;10.248;2023-03-01T10:43:04;102244.97;;;10.18;65.07
2549;BME280;1284;53.520;10.248;2023-03-01T10:45:32;102249.41;;;10.23;65.54
2549;BME280;1284;53.520;10.248;2023-03-01T10:50:34;102253.28;;;10.47;64.72
2549;BME280;1284;53.520;10.248;2023-03-01T10:53:04;102253.72;;;10.32;66.01
2549;BME280;1284;53.520;10.248;2023-03-01T10:55:38;102249.13;;;10.33;66.29
2549;BME280;1284;53.520;10.248;2023-03-01T10:58:21;102251.50;;;10.34;65.20
2549;BME280;1284;53.520;10.248;2023-03-01T11:00:49;102245.31;;;10.25;65.35
2549;BME280;1284;53.520;10.248;2023-03-01T11:03:19;102245.13;;;10.13;66.04
2549;BME280;1284;53.520;10.248;2023-03-01T11:08:44;102243.59;;;10.38;65.40
2549;BME280;1284;53.520;10.248;2023-03-01T11:11:30;102231.41;;;10.40;65.78
2549;BME280;1284;53.520;10.248;2023-03-01T11:16:36;102236.19;;;10.52;64.79
2549;BME280;1284;53.520;10.248;2023-03-01T11:21:36;102241.41;;;10.65;64.48
2549;BME280;1284;53.520;10.248;2023-03-01T11:24:08;102237.28;;;10.59;65.54
2549;BME280;1284;53.520;10.248;2023-03-01T11:26:38;102236.34;;;10.72;64.38
2549;BME280;1284;53.520;10.248;2023-03-01T11:29:33;102238.59;;;10.87;64.29
2549;BME280;1284;53.520;10.248;2023-03-01T11:31:59;102236.19;;;10.86;63.65
2549;BME280;1284;53.520;10.248;2023-03-01T11:35:03;102232.09;;;10.88;63.77
2549;BME280;1284;53.520;10.248;2023-03-01T11:40:24;102225.56;;;10.98;64.21
2549;BME280;1284;53.520;10.248;2023-03-01T11:43:04;102220.97;;;11.16;63.61
2549;BME280;1284;53.520;10.248;2023-03-01T11:45:47;102225.72;;;11.19;63.48
2549;BME280;1284;53.520;10.248;2023-03-01T11:50:51;102219.38;;;11.15;62.62
2549;BME280;1284;53.520;10.248;2023-03-01T11:53:48;102220.91;;;11.33;61.76
2549;BME280;1284;53.520;10.248;2023-03-01T12:07:39;102198.28;;;11.17;62.43
2549;BME280;1284;53.520;10.248;2023-03-01T12:10:20;102199.53;;;11.19;63.07
2549;BME280;1284;53.520;10.248;2023-03-01T12:15:30;102199.00;;;11.43;62.95
2549;BME280;1284;53.520;10.248;2023-03-01T12:26:36;102192.94;;;11.54;62.28
2549;BME280;1284;53.520;10.248;2023-03-01T12:37:51;102166.91;;;11.58;62.21
2549;BME280;1284;53.520;10.248;2023-03-01T12:51:23;102143.16;;;11.81;61.53
2549;BME280;1284;53.520;10.248;2023-03-01T12:53:51;102135.66;;;11.87;60.44
2549;BME280;1284;53.520;10.248;2023-03-01T12:56:22;102139.75;;;11.93;60.00
2549;BME280;1284;53.520;10.248;2023-03-01T13:02:15;102132.09;;;12.24;58.46
2549;BME280;1284;53.520;10.248;2023-03-01T13:07:29;102127.28;;;12.29;57.53
2549;BME280;1284;53.520;10.248;2023-03-01T13:17:59;102129.44;;;12.56;57.43
2549;BME280;1284;53.520;10.248;2023-03-01T13:20:30;102121.91;;;12.83;55.83
2549;BME280;1284;53.520;10.248;2023-03-01T13:23:07;102118.38;;;12.82;55.89
2549;BME280;1284;53.520;10.248;2023-03-01T13:25:34;102126.16;;;12.84;56.03
2549;BME280;1284;53.520;10.248;2023-03-01T13:30:56;102119.38;;;12.78;55.67
2549;BME280;1284;53.520;10.248;2023-03-01T13:35:55;102113.78;;;12.83;54.56
2549;BME280;1284;53.520;10.248;2023-03-01T13:46:50;102107.06;;;13.01;55.23
2549;BME280;1284;53.520;10.248;2023-03-01T13:49:20;102110.38;;;13.18;55.17
2549;BME280;1284;53.520;10.248;2023-03-01T13:51:50;102103.53;;;13.21;54.15
2549;BME280;1284;53.520;10.248;2023-03-01T13:54:25;102103.44;;;13.29;53.91
2549;BME280;1284;53.520;10.248;2023-03-01T13:56:51;102108.50;;;13.43;54.39
2549;BME280;1284;53.520;10.248;2023-03-01T13:59:20;102105.81;;;13.43;54.39
2549;BME280;1284;53.520;10.248;2023-03-01T14:01:54;102103.31;;;13.38;54.15
2549;BME280;1284;53.520;10.248;2023-03-01T14:04:25;102099.56;;;13.18;54.27
2549;BME280;1284;53.520;10.248;2023-03-01T14:07:21;102106.59;;;13.31;53.59
2549;BME280;1284;53.520;10.248;2023-03-01T14:09:54;102090.53;;;13.14;53.31
2549;BME280;1284;53.520;10.248;2023-03-01T14:12:50;102097.88;;;13.26;53.89
2549;BME280;1284;53.520;10.248;2023-03-01T14:15:25;102081.28;;;13.03;54.16
2549;BME280;1284;53.520;10.248;2023-03-01T14:20:41;102072.06;;;13.16;54.42
2549;BME280;1284;53.520;10.248;2023-03-01T14:23:13;102069.81;;;13.30;53.19
2549;BME280;1284;53.520;10.248;2023-03-01T14:25:50;102062.06;;;13.29;53.54
2549;BME280;1284;53.520;10.248;2023-03-01T14:28:24;102075.56;;;13.29;53.54
2549;BME280;1284;53.520;10.248;2023-03-01T14:33:41;102058.44;;;13.37;53.59
2549;BME280;1284;53.520;10.248;2023-03-01T14:36:11;102065.41;;;13.38;53.13
2549;BME280;1284;53.520;10.248;2023-03-01T14:38:42;102067.56;;;13.44;52.64
2549;BME280;1284;53.520;10.248;2023-03-01T14:41:13;102072.44;;;13.39;52.78
2549;BME280;1284;53.520;10.248;2023-03-01T14:46:37;102061.16;;;13.37;51.45
2549;BME280;1284;53.520;10.248;2023-03-01T14:49:16;102059.91;;;13.46;51.72
2549;BME280;1284;53.520;10.248;2023-03-01T14:51:49;102051.09;;;13.49;51.04
2549;BME280;1284;53.520;10.248;2023-03-01T14:54:27;102052.34;;;13.64;50.45
2549;BME280;1284;53.520;10.248;2023-03-01T14:57:00;102048.28;;;13.58;50.06
2549;BME280;1284;53.520;10.248;2023-03-01T14:59:26;102042.66;;;13.51;49.81
2549;BME280;1284;53.520;10.248;2023-03-01T15:01:55;102036.56;;;13.54;50.12
2549;BME280;1284;53.520;10.248;2023-03-01T15:04:23;102033.63;;;13.47;50.02
2549;BME280;1284;53.520;10.248;2023-03-01T15:06:54;102030.34;;;13.53;49.10
2549;BME280;1284;53.520;10.248;2023-03-01T15:09:21;102024.94;;;13.53;49.52
2549;BME280;1284;53.520;10.248;2023-03-01T15:11:48;102028.69;;;13.49;48.54
2549;BME280;1284;53.520;10.248;2023-03-01T15:16:52;102023.28;;;13.37;48.56
2549;BME280;1284;53.520;10.248;2023-03-01T15:19:18;102029.25;;;13.30;48.99
2549;BME280;1284;53.520;10.248;2023-03-01T15:21:47;102036.81;;;13.37;49.07
2549;BME280;1284;53.520;10.248;2023-03-01T15:26:58;102018.50;;;13.46;47.98